createdAt,value
2023-05-19T00:00:14.759Z,85.09
2023-05-19T00:02:46.328Z,85.37
2023-05-19T00:05:18.538Z,85.50
2023-05-19T00:07:48.078Z,85.66
2023-05-19T00:10:17.876Z,85.60
2023-05-19T00:12:46.178Z,86.03
2023-05-19T00:15:15.355Z,86.05
2023-05-19T00:17:44.831Z,85.73
2023-05-19T00:20:14.317Z,85.39
2023-05-19T00:22:44.062Z,85.84
2023-05-19T00:25:12.297Z,86.63
2023-05-19T00:27:40.289Z,85.63
2023-05-19T00:30:10.297Z,85.85
2023-05-19T00:32:38.344Z,85.67
2023-05-19T00:35:09.306Z,86.22
2023-05-19T00:37:37.285Z,85.33
2023-05-19T00:40:08.999Z,85.73
2023-05-19T00:42:37.001Z,86.69
2023-05-19T00:45:06.850Z,86.90
2023-05-19T00:47:35.291Z,86.92
2023-05-19T00:50:03.394Z,86.42
2023-05-19T00:52:32.864Z,86.69
2023-05-19T00:55:00.942Z,86.20
2023-05-19T00:57:29.522Z,85.90
2023-05-19T00:59:57.734Z,85.93
2023-05-19T01:02:26.195Z,85.99
2023-05-19T01:04:56.308Z,86.17
2023-05-19T01:07:25.417Z,86.13
2023-05-19T01:09:56.375Z,86.72
2023-05-19T01:12:24.492Z,87.18
2023-05-19T01:14:52.628Z,87.22
2023-05-19T01:17:34.277Z,87.39
2023-05-19T01:20:10.984Z,87.23
2023-05-19T01:23:05.541Z,87.40
2023-05-19T01:29:07.680Z,87.54
2023-05-19T01:31:38.644Z,87.81
2023-05-19T01:34:10.582Z,87.45
2023-05-19T01:36:44.962Z,87.74
2023-05-19T01:39:15.496Z,88.48
2023-05-19T01:41:46.637Z,87.97
2023-05-19T01:44:15.973Z,88.31
2023-05-19T01:46:48.657Z,88.20
2023-05-19T01:49:16.691Z,88.38
2023-05-19T01:51:51.020Z,88.34
2023-05-19T01:54:18.976Z,88.81
2023-05-19T01:56:54.065Z,88.36
2023-05-19T01:59:35.575Z,88.78
2023-05-19T02:02:14.508Z,88.67
2023-05-19T02:04:46.022Z,88.91
2023-05-19T02:07:18.320Z,89.28
2023-05-19T02:09:54.355Z,89.89
2023-05-19T02:12:29.391Z,89.31
2023-05-19T02:15:05.898Z,89.16
2023-05-19T02:17:42.369Z,89.07
2023-05-19T02:20:12.277Z,88.54
2023-05-19T02:22:40.526Z,88.80
2023-05-19T02:25:12.547Z,88.85
2023-05-19T02:27:40.849Z,89.09
2023-05-19T02:30:10.228Z,88.87
2023-05-19T02:32:42.701Z,88.36
2023-05-19T02:35:14.094Z,89.21
2023-05-19T02:37:42.162Z,88.82
2023-05-19T02:40:11.141Z,88.46
2023-05-19T02:42:39.153Z,89.22
2023-05-19T02:45:08.100Z,88.72
2023-05-19T02:47:37.226Z,88.62
2023-05-19T02:50:09.777Z,88.34
2023-05-19T02:52:37.739Z,88.43
2023-05-19T02:55:06.673Z,88.09
2023-05-19T02:57:36.010Z,87.79
2023-05-19T03:00:05.833Z,88.07
2023-05-19T03:02:35.532Z,88.57
2023-05-19T03:05:04.364Z,87.78
2023-05-19T03:07:33.988Z,87.97
2023-05-19T03:10:03.827Z,88.83
2023-05-19T03:12:32.440Z,88.28
2023-05-19T03:15:00.458Z,88.49
2023-05-19T03:17:33.577Z,89.23
2023-05-19T03:20:02.393Z,89.13
2023-05-19T03:22:32.255Z,88.97
2023-05-19T03:25:01.736Z,88.81
2023-05-19T03:27:30.270Z,88.63
2023-05-19T03:29:58.212Z,88.46
2023-05-19T03:32:26.767Z,88.53
2023-05-19T03:34:57.860Z,87.85
2023-05-19T03:37:26.916Z,88.13
2023-05-19T03:39:56.250Z,88.69
2023-05-19T03:42:26.377Z,88.29
2023-05-19T03:44:56.617Z,87.88
2023-05-19T03:47:24.927Z,87.65
2023-05-19T03:49:56.041Z,88.82
2023-05-19T03:52:49.135Z,88.12
2023-05-19T03:55:29.841Z,87.73
2023-05-19T03:57:59.347Z,87.84
2023-05-19T04:00:27.621Z,88.04
2023-05-19T04:02:56.021Z,87.53
2023-05-19T04:05:24.054Z,87.48
2023-05-19T04:07:52.046Z,87.60
2023-05-19T04:10:20.665Z,86.23
2023-05-19T04:12:49.291Z,85.83
2023-05-19T04:15:18.857Z,85.83
2023-05-19T04:17:47.117Z,85.74
2023-05-19T04:20:17.061Z,85.77
2023-05-19T04:22:45.699Z,86.46
2023-05-19T04:25:13.645Z,86.30
2023-05-19T04:27:41.610Z,86.28
2023-05-19T04:30:10.499Z,86.57
2023-05-19T04:32:41.393Z,86.42
2023-05-19T04:35:09.744Z,86.66
2023-05-19T04:37:39.636Z,87.06
2023-05-19T04:40:12.462Z,87.09
2023-05-19T04:42:43.605Z,86.75
2023-05-19T04:45:12.905Z,87.04
2023-05-19T04:47:48.469Z,88.05
2023-05-19T04:50:16.983Z,87.29
2023-05-19T04:52:46.419Z,86.42
2023-05-19T04:55:18.589Z,86.84
2023-05-19T04:57:48.125Z,88.10
2023-05-19T05:00:16.901Z,88.08
2023-05-19T05:03:05.281Z,87.16
2023-05-19T05:05:33.901Z,87.55
2023-05-19T05:08:03.156Z,86.63
2023-05-19T05:10:35.808Z,87.07
2023-05-19T05:13:04.509Z,86.79
2023-05-19T05:15:35.636Z,86.63
2023-05-19T05:18:06.630Z,87.28
2023-05-19T05:20:35.773Z,86.56
2023-05-19T05:23:04.421Z,86.57
2023-05-19T05:25:34.827Z,86.98
2023-05-19T05:28:04.954Z,86.91
2023-05-19T05:30:35.527Z,87.30
2023-05-19T05:33:06.295Z,87.39
2023-05-19T05:35:38.043Z,87.80
2023-05-19T05:38:08.080Z,86.07
2023-05-19T05:40:37.607Z,85.83
2023-05-19T05:43:06.533Z,86.02
2023-05-19T05:45:39.198Z,86.49
2023-05-19T05:48:10.551Z,85.79
2023-05-19T05:50:39.472Z,84.95
2023-05-19T05:53:09.947Z,84.88
2023-05-19T05:55:41.441Z,84.70
2023-05-19T05:58:11.133Z,84.97
2023-05-19T06:00:39.514Z,84.49
2023-05-19T06:03:09.857Z,83.66
2023-05-19T06:05:38.328Z,83.67
2023-05-19T06:08:06.520Z,82.73
2023-05-19T06:10:35.853Z,82.38
2023-05-19T06:13:07.533Z,82.00
2023-05-19T06:15:40.025Z,81.60
2023-05-19T06:18:19.712Z,80.63
2023-05-19T06:20:49.773Z,80.11
2023-05-19T06:23:18.550Z,80.46
2023-05-19T06:25:48.667Z,79.82
2023-05-19T06:28:16.944Z,78.93
2023-05-19T06:30:45.604Z,77.76
2023-05-19T06:33:41.869Z,77.51
2023-05-19T06:36:10.838Z,78.04
2023-05-19T06:38:40.882Z,76.86
2023-05-19T06:41:09.541Z,77.03
2023-05-19T06:43:38.500Z,76.03
2023-05-19T06:46:06.597Z,75.81
2023-05-19T06:48:34.875Z,76.14
2023-05-19T06:51:06.954Z,76.40
2023-05-19T06:53:36.104Z,74.70
2023-05-19T06:56:08.765Z,74.27
2023-05-19T06:58:39.438Z,73.59
2023-05-19T07:01:07.698Z,74.14
2023-05-19T07:03:42.822Z,73.76
2023-05-19T07:06:14.872Z,73.57
2023-05-19T07:08:43.351Z,73.73
2023-05-19T07:11:13.378Z,73.19
2023-05-19T07:13:42.840Z,73.33
2023-05-19T07:16:11.530Z,71.88
2023-05-19T07:18:44.126Z,71.93
2023-05-19T07:21:14.906Z,71.40
2023-05-19T07:23:42.962Z,71.22
2023-05-19T07:26:10.952Z,70.73
2023-05-19T07:28:41.424Z,70.33
2023-05-19T07:31:09.895Z,69.94
2023-05-19T07:33:37.925Z,69.28
2023-05-19T07:36:06.140Z,68.56
2023-05-19T07:38:35.774Z,69.74
2023-05-19T07:41:04.008Z,68.66
2023-05-19T07:43:32.250Z,66.61
2023-05-19T07:46:00.266Z,66.70
2023-05-19T07:48:28.340Z,65.65
2023-05-19T07:50:56.893Z,66.27
2023-05-19T07:53:25.174Z,64.79
2023-05-19T07:55:58.728Z,64.17
2023-05-19T07:58:27.280Z,63.16
2023-05-19T08:00:58.262Z,61.33
2023-05-19T08:03:26.971Z,61.43
2023-05-19T08:05:55.409Z,62.11
2023-05-19T08:08:23.463Z,61.90
2023-05-19T08:10:55.102Z,60.31
2023-05-19T08:13:24.721Z,60.12
2023-05-19T08:15:54.338Z,59.05
2023-05-19T08:18:22.293Z,57.34
2023-05-19T08:20:50.533Z,58.17
2023-05-19T08:23:18.640Z,59.57
2023-05-19T08:25:46.784Z,58.54
2023-05-19T08:28:16.235Z,58.13
2023-05-19T08:30:44.278Z,58.17
2023-05-19T08:33:12.629Z,58.33
2023-05-19T08:35:40.709Z,56.90
2023-05-19T08:38:08.735Z,55.56
2023-05-19T08:40:42.411Z,56.10
2023-05-19T08:43:11.719Z,55.84
2023-05-19T08:45:44.503Z,56.28
2023-05-19T08:48:17.909Z,55.16
2023-05-19T08:50:53.092Z,54.71
2023-05-19T08:56:10.214Z,54.31
2023-05-19T08:58:40.355Z,49.16
2023-05-19T09:01:14.649Z,49.83
2023-05-19T09:03:43.193Z,50.70
2023-05-19T09:06:13.165Z,50.70
2023-05-19T09:08:42.093Z,50.16
2023-05-19T09:11:10.851Z,49.07
2023-05-19T09:13:39.213Z,47.74
2023-05-19T09:16:09.669Z,48.08
2023-05-19T09:18:39.936Z,47.72
2023-05-19T09:21:08.213Z,47.22
2023-05-19T09:23:38.624Z,46.70
2023-05-19T09:26:07.715Z,46.53
2023-05-19T09:28:37.686Z,46.23
2023-05-19T09:31:07.748Z,47.06
2023-05-19T09:33:38.400Z,48.05
2023-05-19T09:36:08.518Z,47.78
2023-05-19T09:38:37.525Z,46.19
2023-05-19T09:41:07.002Z,46.84
2023-05-19T09:43:36.428Z,46.33
2023-05-19T09:46:09.222Z,46.41
2023-05-19T09:48:39.817Z,46.67
2023-05-19T09:51:10.399Z,47.23
2023-05-19T09:53:39.017Z,46.54
2023-05-19T09:56:09.744Z,45.15
2023-05-19T09:58:39.035Z,44.91
2023-05-19T10:01:08.233Z,43.92
2023-05-19T10:03:36.966Z,44.28
2023-05-19T10:06:09.090Z,44.15
2023-05-19T10:08:38.668Z,44.14
2023-05-19T10:11:06.721Z,43.53
2023-05-19T10:13:38.471Z,43.03
2023-05-19T10:16:07.805Z,42.76
2023-05-19T10:18:38.390Z,42.22
2023-05-19T10:21:09.580Z,41.95
2023-05-19T10:23:37.668Z,41.85
2023-05-19T10:26:07.550Z,42.87
2023-05-19T10:28:39.101Z,43.00
2023-05-19T10:31:10.785Z,42.51
2023-05-19T10:33:50.365Z,41.19
2023-05-19T10:36:35.741Z,40.66
2023-05-19T10:39:08.177Z,40.86
2023-05-19T10:41:47.609Z,40.70
2023-05-19T10:44:29.514Z,41.07
2023-05-19T10:46:57.741Z,40.83
2023-05-19T10:49:26.316Z,41.88
2023-05-19T10:51:57.865Z,41.95
2023-05-19T10:54:41.019Z,41.78
2023-05-19T10:57:09.844Z,40.60
2023-05-19T10:59:39.602Z,39.88
2023-05-19T11:02:10.161Z,39.65
2023-05-19T11:04:50.986Z,38.78
2023-05-19T11:07:24.506Z,38.79
2023-05-19T11:09:53.204Z,37.76
2023-05-19T11:12:24.802Z,39.00
2023-05-19T11:14:54.277Z,39.21
2023-05-19T11:17:23.947Z,39.54
2023-05-19T11:19:56.250Z,38.42
2023-05-19T11:22:30.852Z,37.31
2023-05-19T11:24:59.126Z,38.05
2023-05-19T11:27:31.009Z,38.27
2023-05-19T11:30:00.347Z,38.65
2023-05-19T11:32:30.026Z,37.98
2023-05-19T11:34:58.905Z,37.68
2023-05-19T11:37:29.660Z,36.71
2023-05-19T11:39:57.770Z,35.85
2023-05-19T11:42:25.925Z,35.25
2023-05-19T11:44:56.641Z,35.12
2023-05-19T11:47:24.791Z,34.69
2023-05-19T11:49:53.111Z,33.87
2023-05-19T11:52:22.873Z,36.00
2023-05-19T11:54:52.689Z,36.32
2023-05-19T11:57:21.231Z,37.33
2023-05-19T12:00:03.197Z,37.48
2023-05-19T12:02:33.280Z,38.03
2023-05-19T12:05:01.902Z,37.79
2023-05-19T12:07:30.457Z,37.92
2023-05-19T12:10:01.243Z,37.05
2023-05-19T12:12:31.107Z,34.68
2023-05-19T12:14:59.588Z,32.71
2023-05-19T12:17:28.017Z,32.17
2023-05-19T12:19:56.187Z,32.56
2023-05-19T12:22:26.873Z,35.31
2023-05-19T12:24:55.660Z,36.82
2023-05-19T12:27:36.443Z,36.55
2023-05-19T12:30:09.718Z,35.30
2023-05-19T12:32:38.667Z,36.54
2023-05-19T12:35:09.247Z,36.42
2023-05-19T12:37:38.232Z,35.68
